createdAt,value
2019-05-18T00:02:51.658Z,19.7
2019-05-18T00:07:51.502Z,19.5
2019-05-18T00:12:51.554Z,19.5
2019-05-18T00:17:51.534Z,19.5
2019-05-18T00:22:51.502Z,19.5
2019-05-18T00:27:51.813Z,19.5
2019-05-18T00:32:51.939Z,19.4
2019-05-18T00:37:51.767Z,19.7
2019-05-18T00:42:51.842Z,19
2019-05-18T00:47:56.194Z,19
2019-05-18T00:52:51.720Z,18.8
2019-05-18T00:57:51.735Z,18.6
2019-05-18T01:02:51.710Z,18.8
2019-05-18T01:07:51.777Z,18.9
2019-05-18T01:12:51.708Z,18.6
2019-05-18T01:18:12.518Z,19.3
2019-05-18T01:22:51.949Z,18.8
2019-05-18T01:27:51.917Z,19
2019-05-18T01:32:51.975Z,18.7
2019-05-18T01:37:51.948Z,19
2019-05-18T01:42:51.945Z,19.1
2019-05-18T01:47:51.941Z,19.4
2019-05-18T01:52:52.109Z,19.2
2019-05-18T01:57:51.946Z,18.6
2019-05-18T02:02:51.938Z,19
2019-05-18T02:07:51.907Z,18.4
2019-05-18T02:12:51.872Z,19
2019-05-18T02:17:51.881Z,18.5
2019-05-18T02:22:52.611Z,18
2019-05-18T02:27:52.650Z,18.1
2019-05-18T02:32:52.700Z,17.9
2019-05-18T02:37:52.678Z,17.9
2019-05-18T02:42:52.681Z,18.2
2019-05-18T02:47:52.743Z,18.1
2019-05-18T02:52:52.699Z,18.5
2019-05-18T02:57:52.625Z,17.9
2019-05-18T03:02:52.660Z,17.8
2019-05-18T03:07:52.724Z,18.1
2019-05-18T03:12:52.807Z,17.8
2019-05-18T03:17:52.651Z,17.8
2019-05-18T03:22:53.454Z,18.4
2019-05-18T03:27:53.488Z,17.9
2019-05-18T03:32:53.455Z,19.1
2019-05-18T03:37:53.368Z,19.7
2019-05-18T03:42:53.374Z,19.9
2019-05-18T03:47:53.416Z,19
2019-05-18T03:52:53.390Z,18.9
2019-05-18T03:57:53.351Z,18.7
2019-05-18T04:02:53.368Z,19.1
2019-05-18T04:07:53.373Z,19
2019-05-18T04:12:53.364Z,19.3
2019-05-18T04:17:53.339Z,18.5
2019-05-18T04:22:53.397Z,18.6
2019-05-18T04:27:53.384Z,19
2019-05-18T04:32:53.317Z,19.3
2019-05-18T04:37:53.312Z,19
2019-05-18T04:42:53.306Z,19.5
2019-05-18T04:47:57.000Z,19.1
2019-05-18T04:52:53.360Z,19.5
2019-05-18T04:57:53.411Z,19.5
2019-05-18T05:02:53.415Z,20.2
2019-05-18T05:07:53.424Z,20
2019-05-18T05:12:53.309Z,20.3
2019-05-18T05:17:53.257Z,20.5
2019-05-18T05:22:53.310Z,19.6
2019-05-18T05:27:53.228Z,20.1
2019-05-18T05:32:53.243Z,19.6
2019-05-18T05:37:53.324Z,20.5
2019-05-18T05:42:53.249Z,20.5
2019-05-18T05:47:53.267Z,20.5
2019-05-18T05:52:53.605Z,20.2
2019-05-18T05:57:53.264Z,20.4
2019-05-18T06:07:53.232Z,21.3
2019-05-18T06:12:53.224Z,21.4
2019-05-18T06:17:53.713Z,22.1
2019-05-18T06:22:53.347Z,21.7
2019-05-18T06:27:53.230Z,21.6
2019-05-18T06:32:53.194Z,22.1
2019-05-18T06:37:53.200Z,21.8
2019-05-18T06:42:53.237Z,21.6
2019-05-18T06:47:56.735Z,22.4
2019-05-18T06:52:53.402Z,23.2
2019-05-18T06:57:56.516Z,22.9
2019-05-18T07:02:53.184Z,23.5
2019-05-18T07:07:53.132Z,22.8
2019-05-18T07:12:53.204Z,22.1
2019-05-18T07:17:53.188Z,23.5
2019-05-18T07:22:53.214Z,22.4
2019-05-18T07:27:53.288Z,23.6
2019-05-18T07:32:53.167Z,23.7
2019-05-18T07:37:53.198Z,23.9
2019-05-18T07:42:53.163Z,22.7
2019-05-18T07:47:53.132Z,23.5
2019-05-18T07:52:53.144Z,23.5
2019-05-18T07:57:53.158Z,23.3
2019-05-18T08:02:53.149Z,23.1
2019-05-18T08:07:53.193Z,23.4
2019-05-18T08:12:53.218Z,24.6
2019-05-18T08:17:53.122Z,24.4
2019-05-18T08:22:53.134Z,23.5
2019-05-18T08:27:53.216Z,23.7
2019-05-18T08:32:53.093Z,24.3
2019-05-18T08:37:53.106Z,24.4
2019-05-18T08:42:53.159Z,25.3
2019-05-18T08:47:53.076Z,25.5
2019-05-18T08:52:53.122Z,25.4
2019-05-18T08:57:53.102Z,24.7
2019-05-18T09:02:53.149Z,24.9
2019-05-18T09:07:53.119Z,24.9
2019-05-18T09:12:53.079Z,25.1
2019-05-18T09:17:53.080Z,25.5
2019-05-18T09:22:53.058Z,25.2
2019-05-18T09:27:53.043Z,25.6
2019-05-18T09:32:53.079Z,25.6
2019-05-18T09:37:53.094Z,25.8
2019-05-18T09:42:53.124Z,26.3
2019-05-18T09:47:53.123Z,27.3
2019-05-18T09:53:01.007Z,27.3
2019-05-18T09:57:53.117Z,27.9
2019-05-18T10:02:53.133Z,27.7
2019-05-18T10:07:53.046Z,27.6
2019-05-18T10:12:53.047Z,28.7
2019-05-18T10:17:53.044Z,28.8
2019-05-18T10:23:24.526Z,29.1
2019-05-18T10:27:53.023Z,29.2
2019-05-18T10:32:53.049Z,27.6
2019-05-18T10:37:53.045Z,30.1
2019-05-18T10:42:53.079Z,29.4
2019-05-18T10:47:53.052Z,29.6
2019-05-18T10:52:53.080Z,29
2019-05-18T10:57:52.992Z,28.4
2019-05-18T11:02:52.997Z,30.5
2019-05-18T11:07:53.069Z,28.9
2019-05-18T11:12:53.073Z,31.6
2019-05-18T11:17:53.059Z,28.7
2019-05-18T11:22:53.043Z,30.7
2019-05-18T11:27:53.036Z,31.2
2019-05-18T11:32:53.074Z,30.2
2019-05-18T11:37:52.996Z,30.9
2019-05-18T11:42:53.283Z,30
2019-05-18T11:47:53.003Z,30.3
2019-05-18T11:52:53.065Z,29.8
2019-05-18T11:57:52.975Z,29
2019-05-18T12:02:52.968Z,29.9
2019-05-18T12:07:53.010Z,29.9
2019-05-18T12:12:53.002Z,28.9
2019-05-18T12:17:52.990Z,30.3
2019-05-18T12:22:53.002Z,31.6
2019-05-18T12:27:53.265Z,31.7
2019-05-18T12:32:52.975Z,31.2
2019-05-18T12:37:52.983Z,30.9
2019-05-18T12:42:53.001Z,32
2019-05-18T12:47:52.920Z,30.9
2019-05-18T12:52:52.971Z,32.7
2019-05-18T12:57:52.951Z,33.6
2019-05-18T13:02:52.959Z,34
2019-05-18T13:07:52.967Z,30.5
2019-05-18T13:12:52.896Z,29.7
2019-05-18T13:17:52.973Z,31.8
2019-05-18T13:22:53.019Z,32.1
2019-05-18T13:27:55.139Z,31.1
2019-05-18T13:32:52.909Z,29.7
2019-05-18T13:37:52.935Z,30.4
2019-05-18T13:42:52.996Z,31.4
2019-05-18T13:47:52.944Z,31.1
2019-05-18T13:52:52.891Z,29.6
2019-05-18T13:57:53.009Z,30.5
2019-05-18T14:02:52.962Z,30
2019-05-18T14:07:52.940Z,30.1
2019-05-18T14:12:52.942Z,28.2
2019-05-18T14:17:52.913Z,27.3
2019-05-18T14:22:57.338Z,27.4
2019-05-18T14:27:52.900Z,27.2
2019-05-18T14:32:52.918Z,28
2019-05-18T14:37:52.941Z,28
2019-05-18T14:42:53.063Z,26.8
2019-05-18T14:47:52.994Z,27
2019-05-18T14:52:52.895Z,27.1
2019-05-18T14:57:52.897Z,26.9
2019-05-18T15:02:52.815Z,26.8
2019-05-18T15:07:52.842Z,26.9
2019-05-18T15:12:52.938Z,27.3
2019-05-18T15:17:52.946Z,26.7
2019-05-18T15:22:52.903Z,26.7
2019-05-18T15:27:52.870Z,26.4
2019-05-18T15:32:52.990Z,26.5
2019-05-18T15:37:56.125Z,27.1
2019-05-18T15:42:52.859Z,28.1
2019-05-18T15:47:52.809Z,27.5
2019-05-18T15:52:52.819Z,27.4
2019-05-18T15:57:52.756Z,27.5
2019-05-18T16:02:52.843Z,28.1
2019-05-18T16:07:52.871Z,29.6
2019-05-18T16:12:52.792Z,28.7
2019-05-18T16:17:54.714Z,28.9
2019-05-18T16:22:54.857Z,30
2019-05-18T16:27:52.810Z,29.1
2019-05-18T16:32:52.783Z,31.7
2019-05-18T16:37:52.803Z,28.9
2019-05-18T16:42:54.960Z,29.9
2019-05-18T16:47:52.785Z,30.4
2019-05-18T16:52:52.746Z,29.4
2019-05-18T16:57:52.788Z,28.1
2019-05-18T17:02:52.805Z,27.2
2019-05-18T17:07:52.773Z,26.4
2019-05-18T17:12:53.851Z,26
2019-05-18T17:17:52.777Z,25.3
2019-05-18T17:22:52.872Z,24.7
2019-05-18T17:27:52.792Z,24.9
2019-05-18T17:32:52.742Z,24.9
2019-05-18T17:37:52.720Z,25.2
2019-05-18T17:42:52.831Z,24.6
2019-05-18T17:47:52.764Z,24.3
2019-05-18T17:52:52.915Z,24.7
2019-05-18T17:57:52.750Z,23.5
2019-05-18T18:02:54.630Z,24.2
2019-05-18T18:07:55.347Z,23.2
2019-05-18T18:12:52.730Z,23.2
2019-05-18T18:17:52.685Z,23
2019-05-18T18:22:52.674Z,22.5
2019-05-18T18:27:52.679Z,22.7
2019-05-18T18:32:52.695Z,22.6
2019-05-18T18:37:53.475Z,22.9
2019-05-18T18:42:52.733Z,22.3
2019-05-18T18:47:52.715Z,22.5
2019-05-18T18:52:52.662Z,22.3
2019-05-18T18:57:56.285Z,22.2
2019-05-18T19:02:52.697Z,22.4
2019-05-18T19:07:52.717Z,22.2
2019-05-18T19:12:52.668Z,22.2
2019-05-18T19:17:53.938Z,22.2
2019-05-18T19:22:52.666Z,22.1
2019-05-18T19:28:06.562Z,22
2019-05-18T19:32:52.611Z,21.6
2019-05-18T19:38:00.600Z,21.6
2019-05-18T19:43:00.563Z,22.1
2019-05-18T19:48:00.516Z,21.7
2019-05-18T19:53:00.505Z,21.4
2019-05-18T19:58:14.343Z,21.3
2019-05-18T20:03:00.598Z,21.7
2019-05-18T20:08:07.588Z,21.3
2019-05-18T20:13:06.170Z,21.2
2019-05-18T20:18:06.000Z,21.4
2019-05-18T20:23:08.141Z,21.1
2019-05-18T20:28:05.981Z,20.9
2019-05-18T20:33:06.056Z,21
2019-05-18T20:38:06.085Z,21.4
2019-05-18T20:43:06.024Z,20.8
2019-05-18T20:48:06.059Z,20.8
2019-05-18T20:53:06.082Z,21
2019-05-18T20:58:06.027Z,21.2
2019-05-18T21:03:07.540Z,20.8
2019-05-18T21:08:55.934Z,20.9
2019-05-18T21:13:57.458Z,21
2019-05-18T21:18:55.231Z,20.8
2019-05-18T21:23:55.231Z,20.6
2019-05-18T21:29:13.201Z,20.4
2019-05-18T21:33:55.278Z,20.6
2019-05-18T21:38:55.303Z,20.3
2019-05-18T21:43:55.170Z,20.7
2019-05-18T21:48:55.277Z,20.7
2019-05-18T21:53:55.315Z,20.2
2019-05-18T21:59:08.964Z,20
2019-05-18T22:04:00.817Z,20.4
2019-05-18T22:08:55.238Z,20.1
2019-05-18T22:13:55.273Z,20.2
2019-05-18T22:18:55.211Z,19.8
2019-05-18T22:23:55.164Z,19.9
2019-05-18T22:28:55.184Z,19.5
2019-05-18T22:33:55.201Z,19.9
2019-05-18T22:38:55.219Z,20.2
2019-05-18T22:43:55.239Z,20.2
2019-05-18T22:48:56.322Z,20.6
2019-05-18T22:53:57.019Z,19.9
2019-05-18T22:58:55.161Z,19.6
2019-05-18T23:03:57.944Z,20.3
2019-05-18T23:08:55.142Z,19.8
2019-05-18T23:13:55.165Z,20.1
2019-05-18T23:19:10.351Z,19.8
2019-05-18T23:23:55.147Z,19.8
2019-05-18T23:28:55.153Z,19.8
2019-05-18T23:33:55.088Z,19.9
2019-05-18T23:38:55.136Z,19.2
2019-05-18T23:43:56.597Z,19.4
2019-05-18T23:49:08.700Z,18.9
2019-05-18T23:53:56.566Z,19.2
2019-05-18T23:58:56.609Z,19.6
